TimeMST,TemperatureF,Dew PointF,Humidity,Sea Level PressureIn,VisibilityMPH,Wind Direction,Wind SpeedMPH,Gust SpeedMPH,PrecipitationIn,Events,Conditions,WindDirDegrees,DateUTC
12:53 AM,28.0,21.9,78,30.32,10.0,South,4.6,-,N/A,,Scattered Clouds,180,2013-12-17 07:53:00
1:53 AM,28.0,21.9,78,30.32,10.0,Calm,Calm,-,N/A,,Overcast,0,2013-12-17 08:53:00
2:53 AM,26.1,19.9,78,30.32,10.0,Calm,Calm,-,N/A,,Clear,0,2013-12-17 09:53:00
3:53 AM,19.9,16.0,85,30.33,10.0,SSE,3.5,-,N/A,,Clear,160,2013-12-17 10:53:00
4:53 AM,19.0,15.1,85,30.35,10.0,Calm,Calm,-,N/A,,Clear,0,2013-12-17 11:53:00
5:53 AM,19.0,16.0,88,30.31,10.0,South,4.6,-,N/A,,Clear,170,2013-12-17 12:53:00
6:53 AM,16.0,14.0,92,30.31,10.0,NNW,3.5,-,N/A,,Clear,340,2013-12-17 13:53:00
7:53 AM,19.0,15.1,85,30.27,10.0,Calm,Calm,-,N/A,,Clear,0,2013-12-17 14:53:00
8:53 AM,21.0,18.0,88,30.24,10.0,SSW,3.5,-,N/A,,Clear,200,2013-12-17 15:53:00
9:53 AM,26.1,19.9,78,30.19,10.0,Calm,Calm,-,N/A,,Clear,0,2013-12-17 16:53:00
10:53 AM,30.0,24.1,79,30.14,10.0,SW,3.5,-,N/A,,Clear,230,2013-12-17 17:53:00
11:53 AM,37.9,26.1,62,30.07,10.0,Calm,Calm,-,N/A,,Clear,0,2013-12-17 18:53:00
12:53 PM,37.0,27.0,67,30.03,10.0,NW,4.6,-,N/A,,Clear,310,2013-12-17 19:53:00
1:53 PM,42.1,27.0,55,29.97,10.0,Calm,Calm,-,N/A,,Clear,0,2013-12-17 20:53:00
2:53 PM,48.9,23.0,36,29.93,10.0,Calm,Calm,-,N/A,,Clear,0,2013-12-17 21:53:00
3:53 PM,52.0,21.0,30,29.94,10.0,WNW,12.7,-,N/A,,Clear,290,2013-12-17 22:53:00
4:53 PM,51.1,21.9,32,29.94,10.0,WSW,8.1,-,N/A,,Clear,250,2013-12-17 23:53:00
5:53 PM,48.9,21.9,35,29.94,10.0,Calm,Calm,-,N/A,,Clear,0,2013-12-18 00:53:00
6:53 PM,55.0,19.9,25,29.91,10.0,West,21.9,32.2,N/A,,Clear,280,2013-12-18 01:53:00
7:53 PM,54.0,19.9,26,29.88,10.0,West,17.3,25.3,N/A,,Clear,280,2013-12-18 02:53:00
8:53 PM,51.1,21.0,31,29.88,10.0,Variable,4.6,-,N/A,,Clear,0,2013-12-18 03:53:00
9:53 PM,48.9,23.0,36,29.87,10.0,WNW,11.5,-,N/A,,Clear,300,2013-12-18 04:53:00
10:53 PM,46.9,21.9,37,29.86,10.0,Variable,3.5,-,N/A,,Clear,0,2013-12-18 05:53:00
11:53 PM,53.1,19.0,26,29.81,10.0,Variable,5.8,-,N/A,,Clear,0,2013-12-18 06:53:00